createdAt,value
2018-01-12T00:00:37.436Z,1.55
2018-01-12T00:01:47.715Z,1.54
2018-01-12T00:02:57.852Z,1.57
2018-01-12T00:04:07.713Z,1.53
2018-01-12T00:05:17.841Z,1.58
2018-01-12T00:06:28.107Z,1.51
2018-01-12T00:07:38.255Z,1.46
2018-01-12T00:08:48.381Z,1.54
2018-01-12T00:09:58.556Z,1.48
2018-01-12T00:11:08.724Z,1.54
2018-01-12T00:12:18.840Z,1.5
2018-01-12T00:13:28.969Z,1.5
2018-01-12T00:14:39.122Z,1.4
2018-01-12T00:15:49.289Z,1.39
2018-01-12T00:16:59.534Z,1.36
2018-01-12T00:18:09.684Z,1.33
2018-01-12T00:19:19.981Z,1.25
2018-01-12T00:20:30.201Z,1.25
2018-01-12T00:21:40.387Z,1.2
2018-01-12T00:22:50.589Z,1.22
2018-01-12T00:24:00.867Z,1.24
2018-01-12T00:25:11.119Z,1.21
2018-01-12T00:26:21.270Z,1.2
2018-01-12T00:27:31.414Z,1.18
2018-01-12T00:28:41.641Z,1.18
2018-01-12T00:29:51.557Z,1.15
2018-01-12T00:31:01.694Z,1.14
2018-01-12T00:32:11.825Z,1.1
2018-01-12T00:33:22.102Z,1.11
2018-01-12T00:34:32.230Z,1.1
2018-01-12T00:35:42.587Z,1.04
2018-01-12T00:36:52.758Z,1.17
2018-01-12T00:38:02.525Z,1.14
2018-01-12T00:39:12.782Z,1.24
2018-01-12T00:40:23.006Z,1.18
2018-01-12T00:41:32.888Z,1.21
2018-01-12T00:42:43.026Z,1.21
2018-01-12T00:43:53.143Z,1.12
2018-01-12T00:45:03.282Z,1.2
2018-01-12T00:46:13.432Z,1.17
2018-01-12T00:47:23.544Z,1
2018-01-12T00:48:33.690Z,1.12
2018-01-12T00:49:43.850Z,1.12
2018-01-12T00:50:54.012Z,0.97
2018-01-12T00:52:03.908Z,1.11
2018-01-12T00:53:14.031Z,1.06
2018-01-12T00:54:24.230Z,1.12
2018-01-12T00:55:34.400Z,1.04
2018-01-12T00:56:44.617Z,1.12
2018-01-12T00:57:54.858Z,1.02
2018-01-12T00:59:05.022Z,1.15
2018-01-12T01:00:15.149Z,1.03
2018-01-12T01:01:25.260Z,1.14
2018-01-12T01:02:35.386Z,1.18
2018-01-12T01:03:45.528Z,1.12
2018-01-12T01:04:55.786Z,1.06
2018-01-12T01:06:05.967Z,1.11
2018-01-12T01:07:15.825Z,1.1
2018-01-12T01:08:25.971Z,1.11
2018-01-12T01:09:36.135Z,1.2
2018-01-12T01:10:46.295Z,1.2
2018-01-12T01:11:56.529Z,1.2
2018-01-12T01:13:06.706Z,1.25
2018-01-12T01:14:16.928Z,1.29
2018-01-12T01:15:27.055Z,1.17
2018-01-12T01:16:36.829Z,1.2
2018-01-12T01:17:46.613Z,1.14
2018-01-12T01:18:56.860Z,1.15
2018-01-12T01:20:07.018Z,1.24
2018-01-12T01:21:17.154Z,1.17
2018-01-12T01:22:27.302Z,1.18
2018-01-12T01:23:37.427Z,1.2
2018-01-12T01:24:47.679Z,1.2
2018-01-12T01:25:57.832Z,1.29
2018-01-12T01:27:08.017Z,1.35
2018-01-12T01:28:17.906Z,1.29
2018-01-12T01:29:28.026Z,1.35
2018-01-12T01:30:38.289Z,1.36
2018-01-12T01:31:48.168Z,1.29
2018-01-12T01:32:58.347Z,1.3
2018-01-12T01:34:08.244Z,1.35
2018-01-12T01:35:18.361Z,1.33
2018-01-12T01:36:28.578Z,1.38
2018-01-12T01:37:38.503Z,1.3
2018-01-12T01:38:48.732Z,1.33
2018-01-12T01:39:58.894Z,1.4
2018-01-12T01:41:09.020Z,1.42
2018-01-12T01:42:19.167Z,1.5
2018-01-12T01:43:29.282Z,1.48
2018-01-12T01:44:39.405Z,1.53
2018-01-12T01:45:49.615Z,1.54
2018-01-12T01:46:59.815Z,1.53
2018-01-12T01:48:09.943Z,1.54
2018-01-12T01:49:19.797Z,1.57
2018-01-12T01:50:29.899Z,1.51
2018-01-12T01:51:40.243Z,1.42
2018-01-12T01:52:50.420Z,1.5
2018-01-12T01:54:00.619Z,1.57
2018-01-12T01:55:10.777Z,1.57
2018-01-12T01:56:20.973Z,1.53
2018-01-12T01:57:31.112Z,1.53
2018-01-12T01:58:41.274Z,1.57
2018-01-12T01:59:51.395Z,1.57
2018-01-12T02:01:01.530Z,1.54
2018-01-12T02:02:11.658Z,1.53
2018-01-12T02:03:21.904Z,1.6
2018-01-12T02:04:32.016Z,1.54
2018-01-12T02:05:42.151Z,1.55
2018-01-12T02:06:52.269Z,1.58
2018-01-12T02:08:02.371Z,1.48
2018-01-12T02:09:12.544Z,1.54
2018-01-12T02:10:22.659Z,1.54
2018-01-12T02:11:32.899Z,1.57
2018-01-12T02:12:43.019Z,1.55
2018-01-12T02:13:53.135Z,1.55
2018-01-12T02:15:03.324Z,1.51
2018-01-12T02:16:13.505Z,1.48
2018-01-12T02:17:23.650Z,1.54
2018-01-12T02:18:33.809Z,1.58
2018-01-12T02:19:44.004Z,1.57
2018-01-12T02:20:54.112Z,1.57
2018-01-12T02:22:04.492Z,1.54
2018-01-12T02:23:14.373Z,1.58
2018-01-12T02:24:24.509Z,1.62
2018-01-12T02:25:34.375Z,1.72
2018-01-12T02:26:44.478Z,1.7
2018-01-12T02:27:54.626Z,1.69
2018-01-12T02:29:04.795Z,1.67
2018-01-12T02:30:15.157Z,1.74
2018-01-12T02:31:25.394Z,1.74
2018-01-12T02:32:35.607Z,1.67
2018-01-12T02:33:45.743Z,1.53
2018-01-12T02:34:55.688Z,1.55
2018-01-12T02:36:05.795Z,1.55
2018-01-12T02:37:15.913Z,1.54
2018-01-12T02:38:26.055Z,1.5
2018-01-12T02:39:36.314Z,1.55
2018-01-12T02:40:46.468Z,1.64
2018-01-12T02:41:56.624Z,1.55
2018-01-12T02:43:06.113Z,1.57
2018-01-12T02:44:16.259Z,1.6
2018-01-12T02:45:26.492Z,1.51
2018-01-12T02:46:36.712Z,1.54
2018-01-12T02:47:46.823Z,1.51
2018-01-12T02:48:56.932Z,1.48
2018-01-12T02:50:07.063Z,1.48
2018-01-12T02:51:17.204Z,1.46
2018-01-12T02:52:27.471Z,1.5
2018-01-12T02:53:37.621Z,1.43
2018-01-12T02:54:47.869Z,1.6
2018-01-12T02:55:58.082Z,1.53
2018-01-12T02:57:08.237Z,1.5
2018-01-12T02:58:18.488Z,1.51
2018-01-12T02:59:28.635Z,1.58
2018-01-12T03:00:38.786Z,1.67
2018-01-12T03:01:48.637Z,1.53
2018-01-12T03:02:58.822Z,1.64
2018-01-12T03:04:09.014Z,1.6
2018-01-12T03:05:19.156Z,1.62
2018-01-12T03:06:29.266Z,1.53
2018-01-12T03:07:39.395Z,1.6
2018-01-12T03:08:49.510Z,1.6
2018-01-12T03:09:59.634Z,1.62
2018-01-12T03:11:09.738Z,1.72
2018-01-12T03:12:19.861Z,1.66
2018-01-12T03:13:29.961Z,1.54
2018-01-12T03:14:40.105Z,1.58
2018-01-12T03:15:50.264Z,1.69
2018-01-12T03:17:00.650Z,1.67
2018-01-12T03:18:10.795Z,1.67
2018-01-12T03:19:20.952Z,1.76
2018-01-12T03:20:30.688Z,1.73
2018-01-12T03:21:40.830Z,1.76
2018-01-12T03:22:50.981Z,1.69
2018-01-12T03:24:01.113Z,1.74
2018-01-12T03:25:12.205Z,1.79
2018-01-12T03:26:22.340Z,1.73
2018-01-12T03:27:32.477Z,1.79
2018-01-12T03:28:42.758Z,1.77
2018-01-12T03:29:52.939Z,1.7
2018-01-12T03:31:03.144Z,1.7
2018-01-12T03:32:13.285Z,1.8
2018-01-12T03:33:23.241Z,1.8
2018-01-12T03:34:33.209Z,1.77
2018-01-12T03:35:43.322Z,1.85
2018-01-12T03:36:53.543Z,1.91
2018-01-12T03:38:03.742Z,1.85
2018-01-12T03:39:13.853Z,1.98
2018-01-12T03:40:24.010Z,1.84
2018-01-12T03:41:34.167Z,1.9
2018-01-12T03:42:44.455Z,1.84
2018-01-12T03:43:54.648Z,1.87
2018-01-12T03:45:04.847Z,1.9
2018-01-12T03:46:14.709Z,1.91
2018-01-12T03:47:24.941Z,1.85
2018-01-12T03:48:35.081Z,1.87
2018-01-12T03:49:45.290Z,1.82
2018-01-12T03:50:55.786Z,1.8
2018-01-12T03:52:05.908Z,1.82
2018-01-12T03:53:15.859Z,1.85
2018-01-12T03:54:26.132Z,1.84
2018-01-12T03:55:36.395Z,1.92
2018-01-12T03:56:46.519Z,1.82
2018-01-12T03:57:56.635Z,1.82
2018-01-12T03:59:06.784Z,1.73
2018-01-12T04:00:16.904Z,1.66
2018-01-12T04:01:27.049Z,1.67
2018-01-12T04:02:37.217Z,1.67
2018-01-12T04:03:47.373Z,1.7
2018-01-12T04:04:57.515Z,1.73
2018-01-12T04:06:07.628Z,1.7
2018-01-12T04:07:17.796Z,1.77
2018-01-12T04:08:27.904Z,1.79
2018-01-12T04:09:38.096Z,1.82
2018-01-12T04:10:48.275Z,1.84
2018-01-12T04:11:58.389Z,1.94
2018-01-12T04:13:08.577Z,1.9
2018-01-12T04:14:18.718Z,1.85
2018-01-12T04:15:28.838Z,1.88
2018-01-12T04:16:38.945Z,1.88
2018-01-12T04:17:49.160Z,1.8
2018-01-12T04:18:59.370Z,1.87
2018-01-12T04:20:09.501Z,1.91
2018-01-12T04:21:19.613Z,1.95
2018-01-12T04:22:29.722Z,1.91
2018-01-12T04:23:39.869Z,2.03
2018-01-12T04:24:49.727Z,2.03
2018-01-12T04:25:59.827Z,1.94
2018-01-12T04:27:09.978Z,1.9
2018-01-12T04:28:20.130Z,1.85
2018-01-12T04:29:30.255Z,1.85
2018-01-12T04:30:40.362Z,1.88
2018-01-12T04:31:50.459Z,1.76
2018-01-12T04:33:00.587Z,1.82
2018-01-12T04:34:10.454Z,1.84
2018-01-12T04:35:20.407Z,1.84
2018-01-12T04:36:30.514Z,1.74
2018-01-12T04:37:40.642Z,1.72
2018-01-12T04:38:50.393Z,1.66
2018-01-12T04:40:00.522Z,1.66
2018-01-12T04:41:10.644Z,1.55
2018-01-12T04:42:20.819Z,1.53
2018-01-12T04:43:30.942Z,1.58
2018-01-12T04:44:41.052Z,1.54
2018-01-12T04:45:50.900Z,1.58
2018-01-12T04:47:01.089Z,1.55
2018-01-12T04:48:11.248Z,1.51
2018-01-12T04:49:21.380Z,1.47
2018-01-12T04:50:31.630Z,1.6
2018-01-12T04:51:42.760Z,1.57
2018-01-12T04:52:52.895Z,1.47
2018-01-12T04:54:02.778Z,1.51
2018-01-12T04:55:12.688Z,1.53
2018-01-12T04:56:22.829Z,1.6
2018-01-12T04:57:33.014Z,1.54
2018-01-12T04:58:43.178Z,1.58
2018-01-12T04:59:53.351Z,1.48
2018-01-12T05:01:03.484Z,1.51
2018-01-12T05:02:13.630Z,1.5
2018-01-12T05:03:23.505Z,1.54
2018-01-12T05:04:33.408Z,1.6
2018-01-12T05:05:43.567Z,1.47
2018-01-12T05:06:53.739Z,1.57
2018-01-12T05:08:03.898Z,1.54
2018-01-12T05:09:14.051Z,1.55
2018-01-12T05:10:24.307Z,1.57
2018-01-12T05:11:34.230Z,1.58
2018-01-12T05:12:44.409Z,1.73
2018-01-12T05:13:54.592Z,1.67
2018-01-12T05:15:04.725Z,1.64
2018-01-12T05:16:14.935Z,1.7
2018-01-12T05:17:25.119Z,1.57
2018-01-12T05:18:35.254Z,1.6
2018-01-12T05:19:45.484Z,1.53
2018-01-12T05:20:55.643Z,1.64
2018-01-12T05:22:05.765Z,1.58
2018-01-12T05:23:15.915Z,1.62
2018-01-12T05:24:25.814Z,1.62
2018-01-12T05:25:35.932Z,1.53
2018-01-12T05:26:46.038Z,1.53
2018-01-12T05:27:56.262Z,1.57
2018-01-12T05:29:06.463Z,1.64
2018-01-12T05:30:16.597Z,1.51
2018-01-12T05:31:26.817Z,1.55
2018-01-12T05:32:37.040Z,1.53
2018-01-12T05:33:46.527Z,1.57
2018-01-12T05:34:56.691Z,1.47
2018-01-12T05:36:06.832Z,1.58
2018-01-12T05:37:16.713Z,1.58
2018-01-12T05:38:26.869Z,1.51
2018-01-12T05:39:36.984Z,1.43
2018-01-12T05:40:47.171Z,1.6
2018-01-12T05:41:57.302Z,1.53
2018-01-12T05:43:07.460Z,1.5
2018-01-12T05:44:18.195Z,1.54
2018-01-12T05:45:28.360Z,1.57
2018-01-12T05:46:38.766Z,1.55
2018-01-12T05:47:48.922Z,1.53
2018-01-12T05:48:59.263Z,1.5
2018-01-12T05:50:09.469Z,1.55
2018-01-12T05:51:19.645Z,1.47
2018-01-12T05:52:29.777Z,1.33
2018-01-12T05:53:39.885Z,1.33
2018-01-12T05:54:50.029Z,1.35
2018-01-12T05:56:00.146Z,1.35
2018-01-12T05:57:09.946Z,1.36
2018-01-12T05:58:20.089Z,1.3
2018-01-12T05:59:30.365Z,1.22
2018-01-12T06:00:40.495Z,1.3
2018-01-12T06:01:50.679Z,1.21
2018-01-12T06:03:00.949Z,1.2
2018-01-12T06:04:11.067Z,1.25
2018-01-12T06:05:21.258Z,1.3
2018-01-12T06:06:31.426Z,1.3
2018-01-12T06:07:41.754Z,1.38
2018-01-12T06:08:52.029Z,1.36
2018-01-12T06:10:02.241Z,1.3
2018-01-12T06:11:12.397Z,1.4
2018-01-12T06:12:22.301Z,1.4
2018-01-12T06:13:32.474Z,1.46
2018-01-12T06:14:42.597Z,1.5
2018-01-12T06:15:52.774Z,1.46
2018-01-12T06:17:03.022Z,1.51
2018-01-12T06:18:13.256Z,1.55
2018-01-12T06:19:23.401Z,1.57
2018-01-12T06:20:33.643Z,1.53
2018-01-12T06:21:43.774Z,1.58
2018-01-12T06:22:53.880Z,1.54
2018-01-12T06:24:04.043Z,1.55
2018-01-12T06:25:13.908Z,1.47
2018-01-12T06:26:24.023Z,1.51
2018-01-12T06:27:34.160Z,1.51
2018-01-12T06:28:44.268Z,1.5
2018-01-12T06:29:54.488Z,1.53
2018-01-12T06:31:04.674Z,1.57
2018-01-12T06:32:14.998Z,1.53
2018-01-12T06:33:25.119Z,1.57
2018-01-12T06:34:35.267Z,1.57
2018-01-12T06:35:45.380Z,1.54
2018-01-12T06:36:55.496Z,1.6
2018-01-12T06:38:05.645Z,1.54
2018-01-12T06:39:15.848Z,1.51
2018-01-12T06:40:27.086Z,1.55
2018-01-12T06:41:37.242Z,1.67
2018-01-12T06:42:47.473Z,1.57
2018-01-12T06:43:57.613Z,1.62
2018-01-12T06:45:07.858Z,1.74
2018-01-12T06:46:18.295Z,1.74
2018-01-12T06:47:28.452Z,1.73
2018-01-12T06:48:38.573Z,1.7
2018-01-12T06:49:48.766Z,1.73
2018-01-12T06:50:59.149Z,1.73
2018-01-12T06:52:09.305Z,1.7
2018-01-12T06:53:19.546Z,1.69
2018-01-12T06:54:29.692Z,1.72
2018-01-12T06:55:39.611Z,1.62
2018-01-12T06:56:49.234Z,1.6
2018-01-12T06:57:59.352Z,1.7
2018-01-12T06:59:09.530Z,1.73
2018-01-12T07:00:19.819Z,1.69
2018-01-12T07:01:30.106Z,1.7
2018-01-12T07:02:40.283Z,1.64
2018-01-12T07:03:50.462Z,1.58
2018-01-12T07:05:00.729Z,1.58
2018-01-12T07:06:10.865Z,1.6
2018-01-12T07:07:21.040Z,1.67
2018-01-12T07:08:31.156Z,1.67
2018-01-12T07:09:41.286Z,1.69
2018-01-12T07:10:51.428Z,1.76
2018-01-12T07:12:01.586Z,1.7
2018-01-12T07:13:11.716Z,1.74
2018-01-12T07:14:21.868Z,1.73
2018-01-12T07:15:31.991Z,1.74
2018-01-12T07:16:42.119Z,1.74
2018-01-12T07:17:52.261Z,1.76
2018-01-12T07:19:02.428Z,1.79
2018-01-12T07:20:12.659Z,1.76
2018-01-12T07:21:22.525Z,1.73
2018-01-12T07:22:32.654Z,1.76
2018-01-12T07:23:42.789Z,1.7
2018-01-12T07:24:52.940Z,1.74
2018-01-12T07:26:03.158Z,1.74
2018-01-12T07:27:13.088Z,1.73
2018-01-12T07:28:23.280Z,1.74
2018-01-12T07:29:33.630Z,1.72
2018-01-12T07:30:43.760Z,1.74
2018-01-12T07:31:53.891Z,1.72
2018-01-12T07:33:04.151Z,1.74
2018-01-12T07:34:14.414Z,1.84
2018-01-12T07:35:24.558Z,1.84
2018-01-12T07:36:34.712Z,1.77
2018-01-12T07:37:44.938Z,1.74
2018-01-12T07:38:55.122Z,1.85
2018-01-12T07:40:05.595Z,1.8
2018-01-12T07:41:15.704Z,1.85
2018-01-12T07:42:25.860Z,1.85
2018-01-12T07:43:36.083Z,1.9
2018-01-12T07:44:46.278Z,1.82
2018-01-12T07:45:56.546Z,1.87
2018-01-12T07:47:06.709Z,1.88
2018-01-12T07:48:16.830Z,1.91
2018-01-12T07:49:26.971Z,1.97
2018-01-12T07:50:37.070Z,1.82
2018-01-12T07:51:46.941Z,1.97
2018-01-12T07:52:57.096Z,1.98
2018-01-12T07:54:07.211Z,1.97
2018-01-12T07:55:17.317Z,1.84
2018-01-12T07:56:27.586Z,1.94
2018-01-12T07:57:37.810Z,1.82
2018-01-12T07:58:47.994Z,1.82
2018-01-12T07:59:58.225Z,1.87
2018-01-12T08:01:08.386Z,1.94
2018-01-12T08:02:18.661Z,1.97
2018-01-12T08:03:28.917Z,1.95
2018-01-12T08:04:39.065Z,1.98
2018-01-12T08:05:49.221Z,1.95
2018-01-12T08:06:59.326Z,1.94
2018-01-12T08:08:09.243Z,1.94
2018-01-12T08:09:19.538Z,2.06
2018-01-12T08:10:29.695Z,2.01
2018-01-12T08:11:39.906Z,2.05
2018-01-12T08:12:50.020Z,2.09
2018-01-12T08:14:00.140Z,1.97
2018-01-12T08:15:10.253Z,2
2018-01-12T08:16:20.397Z,1.84
2018-01-12T08:17:30.552Z,1.91
2018-01-12T08:18:40.833Z,1.95
2018-01-12T08:19:50.983Z,2
2018-01-12T08:21:01.137Z,1.95
2018-01-12T08:22:11.461Z,1.92
2018-01-12T08:23:21.721Z,1.97
2018-01-12T08:24:31.861Z,1.94
2018-01-12T08:25:42.120Z,1.9
2018-01-12T08:26:52.310Z,1.79
2018-01-12T08:28:02.570Z,1.8
2018-01-12T08:29:12.445Z,1.88
2018-01-12T08:30:22.601Z,1.87
2018-01-12T08:31:32.719Z,1.84
2018-01-12T08:32:42.866Z,1.88
2018-01-12T08:33:53.093Z,1.88
2018-01-12T08:35:03.278Z,1.87
2018-01-12T08:36:13.422Z,1.88
2018-01-12T08:37:23.547Z,1.87
2018-01-12T08:38:33.698Z,1.85
2018-01-12T08:39:43.865Z,1.87
2018-01-12T08:40:54.097Z,1.9
2018-01-12T08:42:04.322Z,1.95
2018-01-12T08:43:14.467Z,1.97
2018-01-12T08:44:24.651Z,2.01
2018-01-12T08:45:34.867Z,1.98
2018-01-12T08:46:45.224Z,2.05
2018-01-12T08:47:55.387Z,2.06
2018-01-12T08:49:05.523Z,2.1
2018-01-12T08:50:15.735Z,2.06
2018-01-12T08:51:25.893Z,2.13
2018-01-12T08:52:35.801Z,2.13
2018-01-12T08:53:45.978Z,2.15
2018-01-12T08:54:56.115Z,2.24
2018-01-12T08:56:06.233Z,2.21
2018-01-12T08:57:16.361Z,2.23
2018-01-12T08:58:26.530Z,2.28
2018-01-12T08:59:36.693Z,2.3
2018-01-12T09:00:46.839Z,2.27
2018-01-12T09:01:57.023Z,2.31
2018-01-12T09:03:07.203Z,2.33
2018-01-12T09:04:17.453Z,2.31
2018-01-12T09:05:27.735Z,2.28
2018-01-12T09:06:37.979Z,2.31
2018-01-12T09:07:48.223Z,2.39
2018-01-12T09:08:58.424Z,2.41
2018-01-12T09:10:08.591Z,2.26
2018-01-12T09:11:18.795Z,2.31
2018-01-12T09:12:28.945Z,2.33
2018-01-12T09:13:39.086Z,2.27
2018-01-12T09:14:49.247Z,2.3
2018-01-12T09:15:59.379Z,2.31
2018-01-12T09:17:09.522Z,2.3
2018-01-12T09:18:19.670Z,2.24
2018-01-12T09:19:29.828Z,2.26
2018-01-12T09:20:40.015Z,2.23
2018-01-12T09:21:50.156Z,2.23
2018-01-12T09:23:00.283Z,2.3
2018-01-12T09:24:10.394Z,2.24
2018-01-12T09:25:20.520Z,2.28
2018-01-12T09:26:30.652Z,2.21
2018-01-12T09:27:40.785Z,2.23
2018-01-12T09:28:50.983Z,2.27
2018-01-12T09:30:01.107Z,2.27
2018-01-12T09:31:10.956Z,2.27
2018-01-12T09:32:22.030Z,2.34
2018-01-12T09:33:32.174Z,2.34
2018-01-12T09:34:42.370Z,2.23
2018-01-12T09:35:52.574Z,2.27
2018-01-12T09:37:02.703Z,2.27
2018-01-12T09:38:12.915Z,2.27
2018-01-12T09:39:23.130Z,2.3
2018-01-12T09:40:34.398Z,2.3
2018-01-12T09:41:44.653Z,2.24
2018-01-12T09:42:54.844Z,2.27
2018-01-12T09:44:05.137Z,2.27
2018-01-12T09:45:15.337Z,2.21
2018-01-12T09:46:25.466Z,2.26
2018-01-12T09:47:35.644Z,2.19
2018-01-12T09:48:45.526Z,2.26
2018-01-12T09:49:55.680Z,2.23
2018-01-12T09:51:05.825Z,2.3
2018-01-12T09:52:16.029Z,2.3
2018-01-12T09:53:26.193Z,2.31
2018-01-12T09:54:36.416Z,2.37
2018-01-12T09:55:46.584Z,2.36
2018-01-12T09:56:56.749Z,2.37
2018-01-12T09:58:06.893Z,2.41
2018-01-12T09:59:17.016Z,2.42
2018-01-12T10:00:27.188Z,2.39
2018-01-12T10:01:37.439Z,2.45
2018-01-12T10:02:47.294Z,2.48
2018-01-12T10:03:57.417Z,2.42
2018-01-12T10:05:07.556Z,2.42
2018-01-12T10:06:17.780Z,2.48
2018-01-12T10:07:27.935Z,2.52
2018-01-12T10:08:38.078Z,2.52
2018-01-12T10:09:48.231Z,2.52
2018-01-12T10:10:58.410Z,2.53
2018-01-12T10:12:08.565Z,2.51
2018-01-12T10:13:18.696Z,2.52
2018-01-12T10:14:28.869Z,2.56
2018-01-12T10:15:39.087Z,2.49
2018-01-12T10:16:49.274Z,2.55
2018-01-12T10:17:59.566Z,2.55
2018-01-12T10:19:09.703Z,2.55
2018-01-12T10:20:19.957Z,2.63
2018-01-12T10:21:30.118Z,2.56
2018-01-12T10:22:40.250Z,2.6
2018-01-12T10:23:50.427Z,2.63
2018-01-12T10:25:00.342Z,2.64
2018-01-12T10:26:10.488Z,2.64
2018-01-12T10:27:20.628Z,2.63
2018-01-12T10:28:30.760Z,2.59
2018-01-12T10:29:40.898Z,2.69
2018-01-12T10:30:50.736Z,2.66
2018-01-12T10:32:00.861Z,2.64
2018-01-12T10:33:11.003Z,2.56
2018-01-12T10:34:21.205Z,2.69
2018-01-12T10:35:31.369Z,2.51
2018-01-12T10:36:41.606Z,2.52
2018-01-12T10:37:51.808Z,2.48
2018-01-12T10:39:01.960Z,2.59
2018-01-12T10:40:12.192Z,2.55
2018-01-12T10:41:22.334Z,2.51
2018-01-12T10:42:32.462Z,2.51
2018-01-12T10:43:42.638Z,2.51
2018-01-12T10:44:52.794Z,2.52
2018-01-12T10:46:02.933Z,2.55
2018-01-12T10:47:13.097Z,2.51
2018-01-12T10:48:23.264Z,2.52
2018-01-12T10:49:33.523Z,2.55
2018-01-12T10:50:43.777Z,2.56
2018-01-12T10:51:53.922Z,2.53
2018-01-12T10:53:04.095Z,2.63
2018-01-12T10:54:14.223Z,2.6
2018-01-12T10:55:24.331Z,2.63
2018-01-12T10:56:34.520Z,2.59
2018-01-12T10:57:44.650Z,2.64
2018-01-12T10:58:54.781Z,2.49
2018-01-12T11:00:04.941Z,2.51
2018-01-12T11:01:15.067Z,2.62
2018-01-12T11:02:25.198Z,2.55
2018-01-12T11:03:35.341Z,2.52
2018-01-12T11:04:45.508Z,2.52
2018-01-12T11:05:55.729Z,2.56
2018-01-12T11:07:05.906Z,2.56
2018-01-12T11:08:16.105Z,2.66
2018-01-12T11:09:26.306Z,2.56
2018-01-12T11:10:36.460Z,2.66
2018-01-12T11:11:46.599Z,2.69
2018-01-12T11:12:56.779Z,2.73
2018-01-12T11:14:06.941Z,2.77
2018-01-12T11:15:17.169Z,2.84
2018-01-12T11:16:27.324Z,2.91
2018-01-12T11:17:37.521Z,2.88
2018-01-12T11:18:47.660Z,2.94
2018-01-12T11:19:57.855Z,2.85
2018-01-12T11:21:08.119Z,2.84
2018-01-12T11:22:18.277Z,2.92
2018-01-12T11:23:28.412Z,2.91
2018-01-12T11:24:38.530Z,2.94
2018-01-12T11:25:48.680Z,2.92
2018-01-12T11:26:58.823Z,2.82
2018-01-12T11:28:09.021Z,2.94
2018-01-12T11:29:19.206Z,2.89
2018-01-12T11:30:29.436Z,2.82
2018-01-12T11:31:39.595Z,2.92
2018-01-12T11:32:49.750Z,2.88
2018-01-12T11:33:59.888Z,2.99
2018-01-12T11:35:10.018Z,2.96
2018-01-12T11:36:20.177Z,3.04
2018-01-12T11:37:30.329Z,3.07
2018-01-12T11:38:40.461Z,3.1
2018-01-12T11:39:50.600Z,3.07
2018-01-12T11:41:00.730Z,3.04
2018-01-12T11:42:10.910Z,2.96
2018-01-12T11:43:21.041Z,2.97
2018-01-12T11:44:30.912Z,3.1
2018-01-12T11:45:41.057Z,3.08
2018-01-12T11:46:51.171Z,2.92
2018-01-12T11:48:01.344Z,2.96
2018-01-12T11:49:11.505Z,2.91
2018-01-12T11:50:21.705Z,3
2018-01-12T11:51:31.868Z,3.04
2018-01-12T11:52:42.123Z,3
2018-01-12T11:53:52.342Z,2.96
2018-01-12T11:55:02.500Z,3.07
2018-01-12T11:56:12.713Z,2.96
2018-01-12T11:57:22.892Z,3.08
2018-01-12T11:58:32.825Z,3.13
2018-01-12T11:59:43.073Z,3.13
2018-01-12T12:00:53.211Z,3.16
2018-01-12T12:02:03.486Z,3.11
2018-01-12T12:03:13.730Z,3.06
2018-01-12T12:04:23.881Z,3.06
2018-01-12T12:05:34.174Z,3.1
2018-01-12T12:06:44.369Z,3.06
2018-01-12T12:07:54.252Z,3.06
2018-01-12T12:09:04.383Z,3.11
2018-01-12T12:10:14.535Z,3.08
2018-01-12T12:11:24.411Z,3.02
2018-01-12T12:12:34.322Z,3
2018-01-12T12:13:44.450Z,2.94
2018-01-12T12:14:54.589Z,3.02
2018-01-12T12:16:04.802Z,3.06
2018-01-12T12:17:14.934Z,3.02
2018-01-12T12:18:25.075Z,3
2018-01-12T12:19:35.327Z,2.92
2018-01-12T12:20:45.573Z,2.94
2018-01-12T12:21:55.759Z,2.94
2018-01-12T12:23:05.952Z,2.96
2018-01-12T12:24:16.156Z,2.96
2018-01-12T12:25:26.418Z,3
2018-01-12T12:26:36.366Z,2.92
2018-01-12T12:27:46.560Z,3.02
2018-01-12T12:28:56.734Z,2.97
2018-01-12T12:30:06.939Z,2.91
2018-01-12T12:31:18.058Z,2.97
2018-01-12T12:32:28.316Z,2.92
2018-01-12T12:33:38.549Z,2.91
2018-01-12T12:34:48.413Z,2.85
2018-01-12T12:35:58.577Z,2.81
2018-01-12T12:37:08.735Z,2.92
2018-01-12T12:38:18.866Z,2.99
2018-01-12T12:39:29.028Z,2.96
2018-01-12T12:40:39.270Z,2.96
2018-01-12T12:41:49.474Z,2.89
2018-01-12T12:42:59.790Z,2.97
2018-01-12T12:44:09.975Z,2.96
2018-01-12T12:45:20.223Z,2.94
2018-01-12T12:46:30.419Z,2.91
2018-01-12T12:47:40.321Z,2.97
2018-01-12T12:48:50.462Z,2.91
2018-01-12T12:50:00.659Z,2.85
2018-01-12T12:51:10.858Z,2.85
2018-01-12T12:52:21.068Z,2.91
2018-01-12T12:53:31.338Z,2.87
2018-01-12T12:54:41.527Z,2.85
2018-01-12T12:55:51.768Z,2.84
2018-01-12T12:57:01.660Z,2.77
2018-01-12T12:58:11.807Z,2.79
2018-01-12T12:59:21.994Z,2.79
2018-01-12T13:00:32.109Z,2.79
2018-01-12T13:01:42.295Z,2.73
2018-01-12T13:02:52.466Z,2.77
2018-01-12T13:04:02.650Z,2.74
2018-01-12T13:05:12.431Z,2.69
2018-01-12T13:06:22.798Z,2.73
2018-01-12T13:07:33.049Z,2.73
2018-01-12T13:08:43.226Z,2.81
2018-01-12T13:09:53.560Z,2.79
2018-01-12T13:11:03.755Z,2.81
2018-01-12T13:12:13.982Z,2.85
2018-01-12T13:13:24.114Z,2.82
2018-01-12T13:14:34.289Z,2.84
2018-01-12T13:15:44.490Z,2.85
2018-01-12T13:16:54.626Z,2.82
2018-01-12T13:18:04.794Z,2.85
2018-01-12T13:19:14.933Z,2.81
2018-01-12T13:20:24.857Z,2.87
2018-01-12T13:21:35.017Z,2.81
2018-01-12T13:22:45.216Z,2.85
2018-01-12T13:23:55.565Z,2.87
2018-01-12T13:25:05.784Z,2.85
2018-01-12T13:26:15.953Z,2.81
2018-01-12T13:27:26.123Z,2.82
2018-01-12T13:28:36.277Z,2.81
2018-01-12T13:29:46.413Z,2.82
2018-01-12T13:30:56.577Z,2.77
2018-01-12T13:32:06.745Z,2.71
2018-01-12T13:33:17.030Z,2.69
2018-01-12T13:34:27.235Z,2.67
2018-01-12T13:35:37.350Z,2.7
2018-01-12T13:36:47.652Z,2.67
2018-01-12T13:37:57.587Z,2.67
2018-01-12T13:39:07.804Z,2.7
2018-01-12T13:40:17.946Z,2.64
2018-01-12T13:41:28.129Z,2.66
2018-01-12T13:42:38.275Z,2.53
2018-01-12T13:43:48.456Z,2.55
2018-01-12T13:44:58.577Z,2.51
2018-01-12T13:46:08.767Z,2.55
2018-01-12T13:47:18.984Z,2.48
2018-01-12T13:48:28.795Z,2.52
2018-01-12T13:49:39.078Z,2.62
2018-01-12T13:50:49.263Z,2.56
2018-01-12T13:51:59.574Z,2.64
2018-01-12T13:53:09.742Z,2.69
2018-01-12T13:54:19.885Z,2.66
2018-01-12T13:55:30.014Z,2.63
2018-01-12T13:56:40.173Z,2.56
2018-01-12T13:57:50.374Z,2.66
2018-01-12T13:59:00.526Z,2.64
2018-01-12T14:00:10.666Z,2.63
2018-01-12T14:01:20.832Z,2.52
2018-01-12T14:02:30.973Z,2.49
2018-01-12T14:03:41.110Z,2.49
2018-01-12T14:04:51.314Z,2.44
2018-01-12T14:06:01.610Z,2.39
2018-01-12T14:07:11.843Z,2.48
2018-01-12T14:08:22.174Z,2.51
2018-01-12T14:09:32.325Z,2.44
2018-01-12T14:10:42.521Z,2.59
2018-01-12T14:11:52.750Z,2.56
2018-01-12T14:13:02.890Z,2.64
2018-01-12T14:14:13.029Z,2.66
2018-01-12T14:15:23.188Z,2.63
2018-01-12T14:16:33.415Z,2.63
2018-01-12T14:17:43.620Z,2.59
2018-01-12T14:18:53.566Z,2.64
2018-01-12T14:20:03.806Z,2.63
2018-01-12T14:21:13.659Z,2.62
2018-01-12T14:22:23.800Z,2.59
2018-01-12T14:23:33.971Z,2.46
2018-01-12T14:24:44.241Z,2.45
2018-01-12T14:25:54.136Z,2.39
2018-01-12T14:27:04.336Z,2.34
2018-01-12T14:28:14.486Z,2.45
2018-01-12T14:29:24.688Z,2.28
2018-01-12T14:30:34.571Z,2.31
2018-01-12T14:31:44.742Z,2.3
2018-01-12T14:32:54.920Z,2.24
2018-01-12T14:34:05.178Z,2.18
2018-01-12T14:35:15.371Z,2.13
2018-01-12T14:36:25.548Z,2.1
2018-01-12T14:37:35.695Z,2.08
2018-01-12T14:38:45.887Z,2.08
2018-01-12T14:39:56.173Z,2
2018-01-12T14:41:06.299Z,1.95
2018-01-12T14:42:16.174Z,1.98
2018-01-12T14:43:26.393Z,2
2018-01-12T14:44:37.521Z,2
2018-01-12T14:45:47.739Z,2
2018-01-12T14:46:58.009Z,2.05
2018-01-12T14:48:08.157Z,1.95
2018-01-12T14:49:18.316Z,1.98
2018-01-12T14:50:28.483Z,2.03
2018-01-12T14:51:38.661Z,2.1
2018-01-12T14:52:48.887Z,2.1
2018-01-12T14:53:59.068Z,2.08
2018-01-12T14:55:09.231Z,2.16
2018-01-12T14:56:19.413Z,2.27
2018-01-12T14:57:29.606Z,2.26
2018-01-12T14:58:39.761Z,2.26
2018-01-12T14:59:49.889Z,2.34
2018-01-12T15:01:00.110Z,2.27
2018-01-12T15:02:10.261Z,2.24
2018-01-12T15:03:20.394Z,2.26
2018-01-12T15:04:30.597Z,2.3
2018-01-12T15:05:40.721Z,2.3
2018-01-12T15:06:50.866Z,2.24
2018-01-12T15:08:01.036Z,2.31
2018-01-12T15:09:11.252Z,2.31
2018-01-12T15:10:21.417Z,2.33
2018-01-12T15:11:31.597Z,2.26
2018-01-12T15:12:41.882Z,2.33
2018-01-12T15:13:52.046Z,2.23
2018-01-12T15:15:02.299Z,2.27
2018-01-12T15:16:12.454Z,2.24
2018-01-12T15:17:22.734Z,2.15
2018-01-12T15:18:32.875Z,2.13
2018-01-12T15:19:43.180Z,2.03
2018-01-12T15:20:53.456Z,2.03
2018-01-12T15:22:03.622Z,2.06
2018-01-12T15:23:14.757Z,2.05
2018-01-12T15:24:25.001Z,2.03
2018-01-12T15:25:35.285Z,2.03
2018-01-12T15:26:45.554Z,1.98
2018-01-12T15:27:55.456Z,2.1
2018-01-12T15:29:05.624Z,2.09
2018-01-12T15:30:15.412Z,2.06
2018-01-12T15:31:25.565Z,2.1
2018-01-12T15:32:35.768Z,2.1
2018-01-12T15:33:45.979Z,2.09
2018-01-12T15:34:56.145Z,2.09
2018-01-12T15:36:06.352Z,2.09
2018-01-12T15:37:16.484Z,2.06
2018-01-12T15:38:26.764Z,2.09
2018-01-12T15:39:37.043Z,2.05